Houghton, South Dakota
Current Conditions -  °F | °C
As of 3:53 PM on Saturday 20 Dec 2014 (Local Time) from KABR Reporting Station
Haze Haze  
Wind Chill: 19°   Ceiling: 400
Heat Index: 29°   Visibility: 3mi
Dew Point: 27°   Wind: 13mph
Humidity: 92%   Direction: 170°S
Pressure: 29.95"   Gusts: NA
Location:  45.76°N, 98.21°W
Report Text: KABR 202153Z AUTO 17011KT 3SM BR OVC004 M02/M03 A2995 RMK AO2 SLP157 T10171028
Loading
Personal Weather Stations






























Interactive Weather Map New forecast layout! Learn more

10-Day Weather Forecast

Advertisements
Track Severe Weather on mobile